Time;durP1;ratioP1;P1;durP2;ratioP2;P2;SDS_P1;SDS_P2;PMS_P1;PMS_P2;Temp;Humidity;BMP_temperature;BMP_pressure;BME280_temperature;BME280_humidity;BME280_pressure;Samples;Min_cycle;Max_cycle;Signal;HPM_P1;HPM_P2
2021/09/10 00:02:24;;;;;;;9.52;4.90;;;20.20;99.90;;;;;;20479614;28;20375;-44
2021/09/10 00:12:25;;;;;;;10.98;4.85;;;20.20;99.90;;;;;;20489999;28;20621;-44
2021/09/10 00:22:26;;;;;;;11.50;4.90;;;20.10;99.90;;;;;;20474459;28;20046;-44
2021/09/10 00:32:28;;;;;;;10.63;5.13;;;20.10;99.90;;;;;;20482387;28;20081;-44
2021/09/10 00:42:29;;;;;;;8.52;4.32;;;20.00;99.90;;;;;;20467464;28;20051;-43
2021/09/10 00:52:30;;;;;;;9.27;4.82;;;20.00;99.90;;;;;;20472343;28;20051;-43
2021/09/10 01:02:31;;;;;;;11.05;5.45;;;19.90;99.90;;;;;;20493161;28;20511;-43
2021/09/10 01:12:33;;;;;;;10.18;4.25;;;19.90;99.90;;;;;;20477189;28;20058;-43
2021/09/10 01:22:37;;;;;;;13.73;5.28;;;19.90;99.90;;;;;;20487498;28;20462;-43
2021/09/10 01:32:38;;;;;;;13.35;5.97;;;19.90;99.90;;;;;;20495092;28;20381;-43
2021/09/10 01:42:39;;;;;;;11.93;5.38;;;19.90;99.90;;;;;;20485634;28;20062;-43
2021/09/10 01:52:41;;;;;;;12.40;6.47;;;20.00;99.90;;;;;;20517617;28;20035;-43
2021/09/10 02:02:42;;;;;;;11.23;5.57;;;19.90;99.90;;;;;;20511122;28;20054;-43
2021/09/10 02:12:44;;;;;;;11.55;4.78;;;19.80;99.90;;;;;;20489789;28;20058;-44
2021/09/10 02:22:45;;;;;;;9.95;4.68;;;19.80;99.90;;;;;;20481736;28;20041;-43
2021/09/10 02:32:46;;;;;;;15.30;4.90;;;19.70;99.90;;;;;;20471117;28;20048;-43
2021/09/10 02:42:48;;;;;;;10.35;4.85;;;19.70;99.90;;;;;;20476505;28;20052;-43
2021/09/10 02:52:53;;;;;;;12.68;5.78;;;19.70;99.90;;;;;;20463906;28;20043;-43
2021/09/10 03:02:54;;;;;;;12.15;4.78;;;19.80;99.90;;;;;;20482917;28;20498;-43
2021/09/10 03:12:55;;;;;;;11.00;4.72;;;19.70;99.90;;;;;;20459102;28;20062;-43
2021/09/10 03:22:56;;;;;;;10.77;4.13;;;19.70;99.90;;;;;;20480340;28;20474;-44
2021/09/10 03:32:57;;;;;;;10.75;5.15;;;19.70;99.90;;;;;;20495038;28;20479;-44
2021/09/10 03:42:59;;;;;;;9.25;4.80;;;19.70;99.90;;;;;;20465739;28;20733;-43
2021/09/10 03:53:00;;;;;;;8.10;4.38;;;19.60;99.90;;;;;;20470124;28;20055;-43
2021/09/10 04:03:03;;;;;;;8.00;4.80;;;19.70;99.90;;;;;;20502642;28;20501;-43
2021/09/10 04:13:04;;;;;;;10.35;4.68;;;19.70;99.90;;;;;;20475660;28;20059;-44
2021/09/10 04:23:06;;;;;;;10.05;4.60;;;19.60;99.90;;;;;;20493432;28;20398;-43
2021/09/10 04:33:07;;;;;;;8.82;3.72;;;19.50;99.90;;;;;;20494353;28;20051;-44
2021/09/10 04:43:08;;;;;;;14.45;4.38;;;19.50;99.90;;;;;;20493129;28;20056;-44
2021/09/10 04:53:09;;;;;;;10.23;4.90;;;19.50;99.90;;;;;;20522491;28;20382;-44
2021/09/10 05:03:10;;;;;;;9.82;4.40;;;19.50;99.90;;;;;;20494501;28;20046;-44
2021/09/10 05:13:11;;;;;;;9.40;4.05;;;19.40;99.90;;;;;;20497278;28;20049;-44
2021/09/10 05:23:12;;;;;;;9.25;4.38;;;19.40;99.90;;;;;;20487910;28;20042;-44
2021/09/10 05:33:14;;;;;;;11.45;5.25;;;19.40;99.90;;;;;;20476325;28;20054;-43
2021/09/10 05:43:15;;;;;;;9.48;3.53;;;19.40;99.90;;;;;;20495274;28;20038;-44
2021/09/10 05:53:17;;;;;;;9.95;4.53;;;19.40;99.90;;;;;;20482579;28;20047;-43
2021/09/10 06:03:18;;;;;;;10.85;4.43;;;19.40;99.90;;;;;;20511888;28;20498;-44
2021/09/10 06:13:20;;;;;;;11.15;4.25;;;19.50;99.90;;;;;;20482689;28;20058;-43
2021/09/10 06:23:22;;;;;;;21.40;4.43;;;19.50;99.90;;;;;;20512850;28;20058;-43
2021/09/10 06:33:23;;;;;;;8.95;3.75;;;19.50;99.90;;;;;;20499870;28;20081;-43
2021/09/10 06:43:25;;;;;;;9.55;4.03;;;19.50;99.90;;;;;;20505311;28;20039;-44
2021/09/10 06:53:27;;;;;;;9.57;4.05;;;19.50;99.90;;;;;;20484875;28;20066;-44
2021/09/10 07:03:29;;;;;;;9.35;4.03;;;19.60;99.90;;;;;;20497747;28;20035;-44
2021/09/10 07:13:30;;;;;;;9.10;4.30;;;19.80;99.90;;;;;;20460786;28;20066;-44
2021/09/10 07:23:32;;;;;;;6.45;3.50;;;19.90;99.90;;;;;;20501853;28;20394;-43
2021/09/10 07:33:36;;;;;;;5.57;3.58;;;20.10;99.90;;;;;;20504568;28;20435;-44
2021/09/10 07:43:38;;;;;;;7.15;3.42;;;20.20;99.90;;;;;;20513149;28;20055;-44
2021/09/10 07:53:39;;;;;;;8.55;3.78;;;20.20;99.90;;;;;;20477506;28;20055;-44
2021/09/10 08:03:40;;;;;;;5.72;2.95;;;20.20;99.90;;;;;;20469127;28;20043;-44
2021/09/10 08:13:41;;;;;;;7.05;2.65;;;20.20;99.90;;;;;;20481482;28;20085;-44
2021/09/10 08:23:43;;;;;;;6.95;3.67;;;20.30;99.90;;;;;;20508132;28;20047;-44
2021/09/10 08:33:44;;;;;;;9.85;4.22;;;20.30;99.90;;;;;;20513153;28;20277;-43
2021/09/10 08:43:47;;;;;;;9.40;4.03;;;20.40;99.90;;;;;;20509607;28;20445;-44
2021/09/10 08:53:48;;;;;;;9.70;4.03;;;20.50;99.90;;;;;;20503214;28;20042;-44
2021/09/10 09:03:56;;;;;;;6.60;2.65;;;20.80;99.90;;;;;;20470417;28;20039;-44
2021/09/10 09:14:02;;;;;;;12.57;3.42;;;20.90;99.90;;;;;;20470279;28;20152;-44
2021/09/10 09:24:22;;;;;;;7.43;3.28;;;21.10;99.90;;;;;;20473913;28;20528;-44
2021/09/10 09:34:45;;;;;;;8.00;3.22;;;21.40;99.90;;;;;;20496517;28;20479;-44
2021/09/10 09:45:22;;;;;;;5.05;2.70;;;22.00;99.90;;;;;;20501586;28;21318;-45
2021/09/10 09:55:25;;;;;;;5.45;2.42;;;22.20;99.90;;;;;;20489907;28;20043;-44
2021/09/10 10:05:26;;;;;;;5.20;2.53;;;22.20;99.90;;;;;;20490193;28;20048;-44
2021/09/10 10:15:29;;;;;;;6.47;3.08;;;22.40;99.90;;;;;;20476285;28;20042;-44
2021/09/10 10:26:17;;;;;;;4.15;2.47;;;22.60;99.90;;;;;;20454884;28;21279;-44
2021/09/10 10:36:47;;;;;;;5.47;2.67;;;22.60;99.90;;;;;;20450039;28;20050;-44
2021/09/10 10:47:02;;;;;;;5.88;3.30;;;22.70;99.90;;;;;;20468507;28;21481;-44
2021/09/10 10:57:27;;;;;;;8.32;3.72;;;22.80;99.90;;;;;;20432114;28;20507;-44
2021/09/10 11:07:29;;;;;;;6.95;2.88;;;23.20;99.90;;;;;;20508364;28;20051;-44
2021/09/10 11:17:30;;;;;;;4.03;2.45;;;23.30;99.90;;;;;;20484420;28;20046;-44
2021/09/10 11:27:32;;;;;;;4.75;3.10;;;23.20;99.90;;;;;;20472940;28;20085;-44
2021/09/10 11:37:33;;;;;;;6.60;3.20;;;23.00;99.90;;;;;;20464515;28;20043;-44
2021/09/10 11:47:36;;;;;;;6.32;3.20;;;23.20;99.90;;;;;;20465006;28;20051;-44
2021/09/10 11:57:38;;;;;;;8.23;2.80;;;23.90;99.90;;;;;;20467019;28;20039;-44
2021/09/10 12:07:39;;;;;;;9.00;3.53;;;23.60;99.90;;;;;;20483330;28;20051;-45
2021/09/10 12:17:40;;;;;;;6.28;2.97;;;23.20;99.90;;;;;;20453867;28;20102;-44
2021/09/10 12:27:41;;;;;;;5.35;2.58;;;23.00;99.90;;;;;;20469441;28;20042;-44
2021/09/10 12:37:52;;;;;;;4.60;2.05;;;22.90;99.90;;;;;;20516297;28;20051;-44
2021/09/10 12:47:53;;;;;;;4.10;1.85;;;22.70;99.90;;;;;;20496719;28;20054;-44
2021/09/10 12:57:54;;;;;;;5.13;2.70;;;22.60;99.90;;;;;;20477796;28;20036;-44
2021/09/10 13:07:56;;;;;;;4.78;2.35;;;22.40;99.90;;;;;;20463968;28;20043;-44
2021/09/10 13:17:57;;;;;;;4.32;2.17;;;22.20;99.90;;;;;;20488766;28;20043;-44
2021/09/10 13:27:58;;;;;;;5.45;2.08;;;22.10;99.90;;;;;;20486204;28;20051;-44
2021/09/10 13:37:59;;;;;;;5.20;2.40;;;22.00;99.90;;;;;;20480887;28;20038;-44
2021/09/10 13:48:00;;;;;;;5.05;2.15;;;21.90;99.90;;;;;;20507668;28;20277;-44
2021/09/10 13:58:02;;;;;;;5.07;2.25;;;22.10;99.90;;;;;;20499844;28;20035;-44
2021/09/10 14:08:03;;;;;;;4.35;2.30;;;22.20;99.90;;;;;;20470367;28;20376;-44
2021/09/10 14:18:04;;;;;;;5.13;2.65;;;22.10;99.90;;;;;;20454681;28;20986;-44
2021/09/10 14:28:05;;;;;;;4.35;2.40;;;22.00;99.90;;;;;;20477915;28;20051;-44
2021/09/10 14:38:07;;;;;;;5.15;2.42;;;21.90;99.90;;;;;;20465233;28;20389;-46
2021/09/10 14:48:08;;;;;;;3.92;1.80;;;22.10;99.90;;;;;;20464279;28;20047;-44
2021/09/10 14:58:09;;;;;;;3.92;1.75;;;22.00;99.90;;;;;;20492815;28;20050;-44
2021/09/10 15:08:10;;;;;;;4.05;1.90;;;21.90;99.90;;;;;;20457476;28;20054;-44
2021/09/10 15:18:12;;;;;;;9.38;3.72;;;21.90;99.90;;;;;;20466654;28;20031;-44
2021/09/10 15:28:13;;;;;;;7.65;3.85;;;21.80;99.90;;;;;;20487876;28;20133;-44
2021/09/10 15:38:16;;;;;;;7.25;3.20;;;21.80;99.90;;;;;;20501601;28;20487;-44
2021/09/10 15:48:19;;;;;;;5.80;2.72;;;22.00;99.90;;;;;;20430215;28;20534;-44
2021/09/10 15:58:22;;;;;;;7.03;3.47;;;22.00;99.90;;;;;;20445932;28;20051;-44
2021/09/10 16:08:23;;;;;;;4.53;2.42;;;21.90;99.90;;;;;;20435733;28;20632;-44
2021/09/10 16:18:25;;;;;;;4.82;2.25;;;21.70;99.90;;;;;;20446111;28;20047;-44
2021/09/10 16:28:26;;;;;;;4.45;2.20;;;21.50;99.90;;;;;;20456525;28;20047;-44
2021/09/10 16:38:28;;;;;;;6.18;2.60;;;21.40;99.90;;;;;;20416386;28;20589;-44
2021/09/10 16:48:29;;;;;;;5.90;2.92;;;21.40;99.90;;;;;;20483295;28;21551;-44
2021/09/10 16:58:30;;;;;;;8.95;3.80;;;21.20;99.90;;;;;;20498323;28;20043;-44
2021/09/10 17:08:32;;;;;;;7.55;3.22;;;21.20;99.90;;;;;;20472148;28;20055;-44
2021/09/10 17:18:33;;;;;;;8.05;3.17;;;21.20;99.90;;;;;;20497835;28;20046;-44
2021/09/10 17:28:34;;;;;;;7.32;3.78;;;21.00;99.90;;;;;;20500726;28;20047;-44
2021/09/10 17:38:37;;;;;;;8.43;3.75;;;20.90;99.90;;;;;;20491847;28;20530;-44
2021/09/10 17:48:38;;;;;;;8.30;3.38;;;20.70;99.90;;;;;;20485388;28;20046;-44
2021/09/10 17:58:40;;;;;;;9.95;4.35;;;20.60;99.90;;;;;;20495746;28;20070;-44
2021/09/10 18:08:41;;;;;;;7.65;3.33;;;20.40;99.90;;;;;;20463037;28;20510;-44
2021/09/10 18:18:42;;;;;;;10.15;3.53;;;20.30;99.90;;;;;;20496211;28;20051;-44
2021/09/10 18:28:43;;;;;;;9.68;4.35;;;20.20;99.90;;;;;;20470022;28;20054;-44
2021/09/10 18:38:44;;;;;;;9.50;4.50;;;20.10;99.90;;;;;;20475994;28;20070;-44
2021/09/10 18:48:46;;;;;;;11.18;5.60;;;20.10;99.90;;;;;;20486011;28;20051;-44
2021/09/10 18:58:47;;;;;;;7.57;4.00;;;20.10;99.90;;;;;;20475019;28;20046;-44
2021/09/10 19:08:48;;;;;;;8.90;3.90;;;20.10;99.90;;;;;;20480431;28;20487;-44
2021/09/10 19:18:49;;;;;;;10.07;4.10;;;20.00;99.90;;;;;;20474642;28;20054;-44
2021/09/10 19:28:50;;;;;;;9.95;4.03;;;19.90;99.90;;;;;;20486292;28;20050;-44
2021/09/10 19:38:52;;;;;;;8.50;3.47;;;19.90;99.90;;;;;;20478575;28;20107;-44
2021/09/10 19:48:53;;;;;;;7.72;3.45;;;19.70;99.90;;;;;;20468883;28;20047;-44
2021/09/10 19:58:56;;;;;;;12.00;4.22;;;19.60;99.90;;;;;;20485659;28;20333;-44
2021/09/10 20:08:57;;;;;;;7.53;3.60;;;19.20;99.90;;;;;;20454843;28;20059;-45
2021/09/10 20:19:00;;;;;;;10.88;4.45;;;19.00;99.90;;;;;;20442080;28;20506;-45
2021/09/10 20:29:01;;;;;;;12.48;4.88;;;18.90;99.90;;;;;;20461543;28;20051;-44
2021/09/10 20:39:03;;;;;;;11.95;4.40;;;18.80;99.90;;;;;;20481068;28;20570;-43
2021/09/10 20:49:04;;;;;;;12.30;4.75;;;18.80;99.90;;;;;;20462366;28;20047;-43
2021/09/10 20:59:05;;;;;;;13.23;4.53;;;18.70;99.90;;;;;;20463440;28;20050;-44
2021/09/10 21:09:06;;;;;;;10.85;4.95;;;18.70;99.90;;;;;;20499009;28;20051;-44
2021/09/10 21:19:07;;;;;;;14.57;6.03;;;18.70;99.90;;;;;;20498053;28;20422;-44
2021/09/10 21:29:09;;;;;;;11.40;4.47;;;18.70;99.90;;;;;;20484089;28;20047;-44
2021/09/10 21:39:10;;;;;;;9.60;5.05;;;18.60;99.90;;;;;;20529665;28;20039;-44
2021/09/10 21:49:12;;;;;;;8.80;3.67;;;18.50;99.90;;;;;;20491765;28;20061;-44
2021/09/10 21:59:13;;;;;;;7.45;4.10;;;18.50;99.90;;;;;;20501764;28;20067;-44
2021/09/10 22:09:14;;;;;;;6.43;3.17;;;18.40;99.90;;;;;;20492154;28;20426;-44
2021/09/10 22:19:15;;;;;;;5.15;2.60;;;18.30;99.90;;;;;;20473130;28;20039;-44
2021/09/10 22:29:16;;;;;;;4.93;2.03;;;18.20;99.90;;;;;;20459880;28;20338;-44
2021/09/10 22:39:17;;;;;;;4.20;1.60;;;18.10;99.90;;;;;;20462165;28;20090;-44
2021/09/10 22:49:18;;;;;;;4.65;1.55;;;18.00;99.90;;;;;;20470927;28;20079;-44
2021/09/10 22:59:20;;;;;;;5.25;2.88;;;18.00;99.90;;;;;;20468216;28;20070;-44
2021/09/10 23:09:21;;;;;;;5.22;2.70;;;17.90;99.90;;;;;;20514475;28;20051;-44
2021/09/10 23:19:22;;;;;;;6.15;2.35;;;17.80;99.90;;;;;;20499625;28;20047;-44
2021/09/10 23:29:23;;;;;;;6.53;2.50;;;17.80;99.90;;;;;;20466484;28;20058;-44
2021/09/10 23:39:24;;;;;;;8.95;3.78;;;17.70;99.90;;;;;;20467104;28;20415;-44
2021/09/10 23:49:26;;;;;;;5.97;2.75;;;17.60;99.90;;;;;;20468352;28;20510;-44
2021/09/10 23:59:27;;;;;;;8.10;3.15;;;17.50;99.90;;;;;;20477278;28;20044;-44
